Time;durP1;ratioP1;P1;durP2;ratioP2;P2;SDS_P1;SDS_P2;PMS_P1;PMS_P2;Temp;Humidity;BMP_temperature;BMP_pressure;BME280_temperature;BME280_humidity;BME280_pressure;Samples;Min_cycle;Max_cycle;Signal;HPM_P1;HPM_P2
2023/08/05 00:01:00;;;;;;;0.88;0.78;;;17.70;99.90;;;;;;1908195;75;21162;-86
2023/08/05 00:03:52;;;;;;;2.50;1.05;;;17.70;99.90;;;;;;1905025;73;21059;-85
2023/08/05 00:06:43;;;;;;;1.20;0.70;;;17.70;99.90;;;;;;1910331;74;21152;-84
2023/08/05 00:14:54;;;;;;;2.05;0.78;;;17.70;99.90;;;;;;1954778;72;22310;-83
2023/08/05 00:17:45;;;;;;;1.10;0.90;;;17.70;99.90;;;;;;1928607;73;21100;-82
2023/08/05 00:25:55;;;;;;;1.15;1.00;;;17.60;99.90;;;;;;1934028;72;22182;-82
2023/08/05 00:31:25;;;;;;;1.67;0.90;;;17.60;99.90;;;;;;1927452;72;22747;-82
2023/08/05 00:34:17;;;;;;;2.52;0.75;;;17.50;99.90;;;;;;1873752;75;21521;-82
2023/08/05 00:37:08;;;;;;;1.00;0.82;;;17.60;99.90;;;;;;1873684;75;21177;-82
2023/08/05 00:40:00;;;;;;;1.40;0.80;;;17.60;99.90;;;;;;1887741;75;21178;-82
2023/08/05 00:42:51;;;;;;;1.10;0.82;;;17.60;99.90;;;;;;1893419;75;21095;-81
2023/08/05 00:45:43;;;;;;;0.78;0.60;;;17.50;99.90;;;;;;1874316;75;21175;-83
2023/08/05 00:48:35;;;;;;;1.27;0.85;;;17.60;99.90;;;;;;1886773;75;21107;-82
2023/08/05 00:51:28;;;;;;;1.37;0.80;;;17.50;99.90;;;;;;1875756;75;21141;-83
2023/08/05 00:57:00;;;;;;;0.90;0.80;;;17.50;99.90;;;;;;1962212;72;22271;-84
2023/08/05 01:05:12;;;;;;;1.37;0.90;;;17.50;99.90;;;;;;1931226;72;22330;-82
2023/08/05 01:10:42;;;;;;;1.27;0.65;;;17.50;99.90;;;;;;1955844;72;22201;-84
2023/08/05 01:13:33;;;;;;;1.35;0.70;;;17.50;99.90;;;;;;1907542;74;21113;-85
2023/08/05 01:19:07;;;;;;;0.93;0.80;;;17.40;99.90;;;;;;1952291;72;22167;-83
2023/08/05 01:22:02;;;;;;;3.35;0.90;;;17.50;99.90;;;;;;1905102;75;21082;-82
2023/08/05 01:24:58;;;;;;;1.22;0.70;;;17.30;99.90;;;;;;1892486;75;21417;-86
2023/08/05 01:27:50;;;;;;;2.37;0.80;;;17.30;99.90;;;;;;1906082;75;21087;-83
2023/08/05 01:30:45;;;;;;;0.98;0.90;;;17.30;99.90;;;;;;1891348;75;21095;-83
2023/08/05 01:33:37;;;;;;;1.12;0.80;;;17.30;99.90;;;;;;1896819;75;21110;-84
2023/08/05 01:36:28;;;;;;;1.82;0.80;;;17.30;99.90;;;;;;1903384;75;21083;-84
2023/08/05 01:39:19;;;;;;;1.50;0.80;;;17.30;99.90;;;;;;1906115;75;21148;-83
2023/08/05 01:42:11;;;;;;;0.65;0.60;;;17.30;99.90;;;;;;1913656;75;21111;-84
2023/08/05 01:45:03;;;;;;;1.20;0.80;;;17.20;99.90;;;;;;1901292;75;21163;-83
2023/08/05 01:47:54;;;;;;;1.45;0.80;;;17.10;99.90;;;;;;1898924;75;21153;-84
2023/08/05 01:50:46;;;;;;;0.95;0.80;;;17.10;99.90;;;;;;1888520;75;21086;-83
2023/08/05 01:53:37;;;;;;;2.75;0.98;;;17.10;99.90;;;;;;1909064;75;21168;-84
2023/08/05 01:56:28;;;;;;;1.20;0.75;;;17.10;99.90;;;;;;1893444;75;21169;-84
2023/08/05 01:59:20;;;;;;;2.20;0.90;;;17.10;99.90;;;;;;1903557;75;21582;-84
2023/08/05 02:02:12;;;;;;;0.72;0.72;;;17.10;99.90;;;;;;1894687;75;21098;-84
2023/08/05 02:05:03;;;;;;;3.83;1.10;;;17.10;99.90;;;;;;1893822;75;21587;-83
2023/08/05 02:07:54;;;;;;;1.57;1.22;;;17.20;99.90;;;;;;1900662;75;21086;-85
2023/08/05 02:10:47;;;;;;;1.12;0.72;;;17.20;99.90;;;;;;1880082;75;21097;-84
2023/08/05 02:13:38;;;;;;;1.12;0.80;;;17.20;99.90;;;;;;1903552;75;21094;-83
2023/08/05 02:16:34;;;;;;;1.67;0.82;;;17.20;99.90;;;;;;1892355;75;21144;-84
2023/08/05 02:19:26;;;;;;;1.72;0.90;;;17.10;99.90;;;;;;1899159;74;21150;-83
2023/08/05 02:24:57;;;;;;;0.88;0.78;;;17.00;99.90;;;;;;1943896;72;22248;-83
2023/08/05 02:27:48;;;;;;;2.42;0.90;;;16.90;99.90;;;;;;1925958;73;21098;-88
2023/08/05 02:30:41;;;;;;;1.20;0.80;;;16.90;99.90;;;;;;1928492;73;21204;-91
2023/08/05 02:33:32;;;;;;;2.52;0.90;;;16.80;99.90;;;;;;1918088;73;21079;-83
2023/08/05 02:36:24;;;;;;;1.27;0.62;;;16.70;99.90;;;;;;1920169;73;21362;-85
2023/08/05 02:39:16;;;;;;;2.15;0.78;;;16.70;99.90;;;;;;1932384;73;21087;-88
2023/08/05 02:42:08;;;;;;;1.20;0.80;;;16.60;99.90;;;;;;1935942;73;21072;-84
2023/08/05 02:47:38;;;;;;;2.52;0.98;;;16.50;99.90;;;;;;1962996;72;22306;-86
2023/08/05 02:50:30;;;;;;;0.80;0.80;;;16.50;99.90;;;;;;1913925;73;21476;-86
2023/08/05 02:56:00;;;;;;;1.92;0.80;;;16.60;99.90;;;;;;1930000;72;22259;-87
2023/08/05 02:58:52;;;;;;;1.05;0.95;;;16.50;99.90;;;;;;1891438;75;21179;-87
2023/08/05 03:01:43;;;;;;;1.55;0.90;;;16.60;99.90;;;;;;1904942;75;21120;-87
2023/08/05 03:07:15;;;;;;;1.35;0.95;;;16.60;99.90;;;;;;1941179;72;22511;-87
2023/08/05 03:10:08;;;;;;;0.93;0.80;;;16.50;99.90;;;;;;1915988;75;21169;-86
2023/08/05 03:13:00;;;;;;;1.50;0.90;;;16.50;99.90;;;;;;1899658;75;21156;-90
2023/08/05 03:15:51;;;;;;;2.67;1.02;;;16.50;99.90;;;;;;1905341;75;21153;-85
2023/08/05 03:18:42;;;;;;;1.47;1.00;;;16.40;99.90;;;;;;1896005;75;21116;-90
2023/08/05 03:21:34;;;;;;;1.67;0.90;;;16.30;99.90;;;;;;1908681;75;21158;-86
2023/08/05 03:24:25;;;;;;;1.05;0.90;;;16.30;99.90;;;;;;1885385;75;21146;-86
2023/08/05 03:27:16;;;;;;;1.65;1.05;;;16.30;99.90;;;;;;1902877;75;21592;-88
2023/08/05 03:30:10;;;;;;;1.20;1.05;;;16.40;99.90;;;;;;1897994;74;21101;-87
2023/08/05 03:33:02;;;;;;;1.20;0.80;;;16.30;99.90;;;;;;1889847;75;21193;-86
2023/08/05 03:35:55;;;;;;;1.67;1.00;;;16.20;99.90;;;;;;1888387;74;21191;-87
2023/08/05 03:41:27;;;;;;;1.20;0.88;;;16.20;99.90;;;;;;1953191;72;22159;-86
2023/08/05 03:44:19;;;;;;;0.80;0.80;;;16.20;99.90;;;;;;1917131;75;21137;-87
2023/08/05 03:47:10;;;;;;;1.67;0.80;;;16.10;99.90;;;;;;1916929;75;21129;-87
2023/08/05 03:50:01;;;;;;;0.90;0.88;;;16.10;99.90;;;;;;1919880;73;21138;-85
2023/08/05 03:52:53;;;;;;;1.12;1.00;;;16.20;99.90;;;;;;1916061;74;21162;-86
2023/08/05 03:55:44;;;;;;;1.60;1.10;;;16.10;99.90;;;;;;1918375;73;21094;-86
2023/08/05 03:58:35;;;;;;;1.17;1.05;;;16.10;99.90;;;;;;1928130;73;21177;-87
2023/08/05 04:01:29;;;;;;;1.37;0.80;;;16.10;99.90;;;;;;1914871;75;21114;-86
2023/08/05 04:04:20;;;;;;;1.07;0.60;;;16.10;99.90;;;;;;1939621;73;21118;-88
2023/08/05 04:07:12;;;;;;;2.12;1.00;;;16.10;99.90;;;;;;1888837;75;21097;-86
2023/08/05 04:10:06;;;;;;;0.80;0.78;;;16.10;99.90;;;;;;1921750;74;21106;-88
2023/08/05 04:12:57;;;;;;;1.40;0.88;;;16.20;99.90;;;;;;1936415;73;21599;-86
2023/08/05 04:15:51;;;;;;;2.62;0.98;;;16.20;99.90;;;;;;1933548;73;21095;-88
2023/08/05 04:18:42;;;;;;;1.10;0.80;;;16.20;99.90;;;;;;1917529;73;21094;-85
2023/08/05 04:21:40;;;;;;;0.85;0.80;;;16.20;99.90;;;;;;1859062;76;21070;-85
2023/08/05 04:24:28;;;;;;;3.27;0.98;;;16.10;99.90;;;;;;1927294;73;21130;-87
2023/08/05 04:27:18;;;;;;;1.35;0.90;;;16.10;99.90;;;;;;1917538;73;21494;-85
2023/08/05 04:30:12;;;;;;;1.07;0.82;;;16.10;99.90;;;;;;1921276;74;21094;-84
2023/08/05 04:33:02;;;;;;;0.93;0.90;;;16.00;99.90;;;;;;1930450;73;21043;-86
2023/08/05 04:35:54;;;;;;;4.55;0.90;;;15.90;99.90;;;;;;1924695;73;21087;-86
2023/08/05 04:38:45;;;;;;;1.07;0.90;;;15.90;99.90;;;;;;1917347;73;21448;-85
2023/08/05 04:41:36;;;;;;;2.02;1.07;;;15.90;99.90;;;;;;1872417;75;21142;-87
2023/08/05 04:47:11;;;;;;;1.45;1.00;;;16.00;99.90;;;;;;1973238;72;22166;-86
2023/08/05 04:50:02;;;;;;;1.20;0.90;;;16.00;99.90;;;;;;1928337;74;21187;-89
2023/08/05 04:52:53;;;;;;;1.20;0.90;;;16.10;99.90;;;;;;1919940;73;21704;-89
2023/08/05 04:55:44;;;;;;;2.45;1.10;;;16.20;99.90;;;;;;1931604;73;21106;-86
2023/08/05 04:58:35;;;;;;;3.25;1.17;;;16.20;99.90;;;;;;1922451;73;21164;-85
2023/08/05 05:01:27;;;;;;;1.62;1.00;;;16.20;99.90;;;;;;1925531;73;21198;-86
2023/08/05 05:04:19;;;;;;;2.22;0.98;;;16.20;99.90;;;;;;1931442;73;21159;-86
2023/08/05 05:07:10;;;;;;;1.20;1.10;;;16.10;99.90;;;;;;1924085;73;21105;-87
2023/08/05 05:10:01;;;;;;;1.37;0.90;;;16.00;99.90;;;;;;1931569;73;21545;-86
2023/08/05 05:15:31;;;;;;;1.32;0.90;;;15.90;99.90;;;;;;1944816;72;22503;-85
2023/08/05 05:18:22;;;;;;;1.10;0.90;;;15.90;99.90;;;;;;1897265;75;21187;-85
2023/08/05 05:21:14;;;;;;;3.27;1.10;;;15.80;99.90;;;;;;1905433;75;21062;-86
2023/08/05 05:24:06;;;;;;;1.75;1.00;;;15.80;99.90;;;;;;1909716;75;21168;-85
2023/08/05 05:26:57;;;;;;;1.17;1.07;;;15.80;99.90;;;;;;1904900;75;21633;-86
2023/08/05 05:32:27;;;;;;;0.90;0.75;;;15.80;99.90;;;;;;1938880;72;22369;-87
2023/08/05 05:35:18;;;;;;;0.90;0.80;;;15.80;99.90;;;;;;1911755;75;21134;-85
2023/08/05 05:38:09;;;;;;;1.25;1.10;;;15.70;99.90;;;;;;1895795;75;21093;-84
2023/08/05 05:41:02;;;;;;;1.62;0.85;;;15.70;99.90;;;;;;1914329;75;21872;-87
2023/08/05 05:43:53;;;;;;;1.15;0.90;;;15.70;99.90;;;;;;1915012;75;21603;-84
2023/08/05 05:46:45;;;;;;;1.30;0.90;;;15.80;99.90;;;;;;1900938;75;21212;-84
2023/08/05 05:49:36;;;;;;;1.80;1.00;;;15.80;99.90;;;;;;1905025;75;21204;-86
2023/08/05 05:55:09;;;;;;;1.15;1.05;;;15.80;99.90;;;;;;1951884;72;22236;-84
2023/08/05 06:00:39;;;;;;;2.02;0.90;;;15.80;99.90;;;;;;1914422;72;22262;-83
2023/08/05 06:06:10;;;;;;;1.82;1.00;;;15.80;99.90;;;;;;1955518;72;22216;-82
2023/08/05 06:09:03;;;;;;;2.05;1.10;;;15.80;99.90;;;;;;1918649;73;21519;-83
2023/08/05 06:11:54;;;;;;;1.02;0.88;;;15.80;99.90;;;;;;1917525;73;21127;-83
2023/08/05 06:14:45;;;;;;;1.75;0.80;;;15.70;99.90;;;;;;1926055;73;21155;-83
2023/08/05 06:20:16;;;;;;;1.72;1.10;;;15.70;99.90;;;;;;1922874;72;22280;-84
2023/08/05 06:23:07;;;;;;;1.10;1.00;;;15.70;99.90;;;;;;1885341;75;21109;-86
2023/08/05 06:25:58;;;;;;;1.17;1.07;;;15.70;99.90;;;;;;1890662;75;21094;-86
2023/08/05 06:28:51;;;;;;;1.55;0.98;;;15.70;99.90;;;;;;1901569;75;21227;-84
2023/08/05 06:31:42;;;;;;;1.35;0.90;;;15.80;99.90;;;;;;1892954;75;21170;-84
2023/08/05 06:37:14;;;;;;;1.10;0.80;;;15.80;99.90;;;;;;1951174;72;22142;-86
2023/08/05 06:40:10;;;;;;;1.72;1.00;;;15.90;99.90;;;;;;1926740;73;21159;-85
2023/08/05 06:43:01;;;;;;;1.12;0.80;;;16.00;99.90;;;;;;1922785;73;21182;-83
2023/08/05 06:45:53;;;;;;;1.92;0.85;;;16.10;99.90;;;;;;1932057;73;21108;-84
2023/08/05 06:48:45;;;;;;;1.25;1.02;;;16.10;99.90;;;;;;1930899;73;21682;-86
2023/08/05 06:54:22;;;;;;;0.95;0.90;;;16.10;99.90;;;;;;1941243;72;22198;-84
2023/08/05 06:57:13;;;;;;;1.67;1.12;;;16.00;99.90;;;;;;1883674;75;21174;-84
2023/08/05 07:00:06;;;;;;;1.98;0.93;;;16.10;99.90;;;;;;1892825;75;21059;-84
2023/08/05 07:02:58;;;;;;;1.00;0.90;;;16.10;99.90;;;;;;1895492;75;21174;-83
2023/08/05 07:05:49;;;;;;;7.20;1.27;;;16.10;99.90;;;;;;1883729;75;21260;-83
2023/08/05 07:08:40;;;;;;;1.62;0.95;;;16.20;99.90;;;;;;1902386;75;21229;-83
2023/08/05 07:11:31;;;;;;;1.60;1.00;;;16.20;99.90;;;;;;1903193;75;21121;-86
2023/08/05 07:14:22;;;;;;;0.88;0.80;;;16.20;99.90;;;;;;1909116;75;21582;-84
2023/08/05 07:17:14;;;;;;;1.55;0.93;;;16.20;99.90;;;;;;1883125;75;21383;-84
2023/08/05 07:20:08;;;;;;;2.12;0.80;;;16.20;99.90;;;;;;1907838;75;21118;-84
2023/08/05 07:25:37;;;;;;;2.12;1.17;;;16.30;99.90;;;;;;1957165;72;22286;-84
2023/08/05 07:28:28;;;;;;;1.77;0.90;;;16.30;99.90;;;;;;1918698;73;21601;-86
2023/08/05 07:31:19;;;;;;;1.45;1.07;;;16.50;99.90;;;;;;1887212;75;21159;-83
2023/08/05 07:34:10;;;;;;;1.20;0.80;;;16.50;99.90;;;;;;1913853;75;21617;-85
2023/08/05 07:37:01;;;;;;;0.95;0.90;;;16.60;99.90;;;;;;1918513;74;21168;-85
2023/08/05 07:39:57;;;;;;;1.32;1.07;;;16.50;99.90;;;;;;1923903;73;21094;-84
2023/08/05 07:42:49;;;;;;;0.95;0.82;;;16.40;99.90;;;;;;1923868;73;21161;-83
2023/08/05 07:45:41;;;;;;;1.10;0.93;;;16.50;99.90;;;;;;1918135;73;21480;-86
2023/08/05 07:48:35;;;;;;;1.40;1.00;;;16.50;99.90;;;;;;1931110;73;21086;-83
2023/08/05 07:51:28;;;;;;;1.75;0.95;;;16.50;99.90;;;;;;1916424;75;21106;-85
2023/08/05 07:54:20;;;;;;;1.72;1.10;;;16.60;99.90;;;;;;1931117;73;21114;-86
2023/08/05 07:57:12;;;;;;;0.90;0.70;;;16.60;99.90;;;;;;1925441;73;21157;-84
2023/08/05 08:00:04;;;;;;;1.92;1.07;;;16.50;99.90;;;;;;1925128;73;21172;-83
2023/08/05 08:05:43;;;;;;;1.20;0.88;;;16.70;99.90;;;;;;1948597;72;20530;-85
2023/08/05 08:08:34;;;;;;;2.05;0.88;;;16.60;99.90;;;;;;1931475;73;22291;-87
2023/08/05 08:11:25;;;;;;;1.20;1.10;;;16.70;99.90;;;;;;1918080;73;21118;-84
2023/08/05 08:14:17;;;;;;;1.60;1.00;;;16.70;99.90;;;;;;1933196;73;21204;-83
2023/08/05 08:19:50;;;;;;;2.12;0.98;;;16.80;99.90;;;;;;1927465;72;22216;-86
2023/08/05 08:25:42;;;;;;;1.77;1.00;;;16.90;99.90;;;;;;1930437;72;22646;-81
2023/08/05 08:28:52;;;;;;;1.70;1.10;;;17.00;99.90;;;;;;1906191;75;21118;-82
2023/08/05 08:31:43;;;;;;;2.85;1.32;;;17.10;99.90;;;;;;1900047;75;21213;-82
2023/08/05 08:34:34;;;;;;;0.90;0.82;;;17.20;99.90;;;;;;1893048;75;21109;-83
2023/08/05 08:37:26;;;;;;;1.02;0.90;;;17.20;99.90;;;;;;1884886;75;21129;-84
2023/08/05 08:40:17;;;;;;;1.10;1.00;;;17.10;99.90;;;;;;1889382;75;21105;-83
2023/08/05 08:45:48;;;;;;;1.62;1.10;;;17.20;99.90;;;;;;1929734;72;22687;-84
2023/08/05 08:48:41;;;;;;;1.20;1.10;;;17.20;99.90;;;;;;1880317;75;21107;-82
2023/08/05 08:51:34;;;;;;;1.30;1.02;;;17.30;99.90;;;;;;1928142;73;21164;-81
2023/08/05 08:54:27;;;;;;;1.12;0.90;;;17.50;99.90;;;;;;1923806;73;21096;-84
2023/08/05 08:57:18;;;;;;;2.27;0.93;;;17.50;99.90;;;;;;1928807;73;21098;-84
2023/08/05 09:00:13;;;;;;;1.42;1.22;;;17.60;99.90;;;;;;1943818;73;21554;-84
2023/08/05 09:05:47;;;;;;;1.00;0.98;;;17.70;99.90;;;;;;1941055;72;22257;-81
2023/08/05 09:08:38;;;;;;;4.47;0.93;;;17.70;99.90;;;;;;1932688;73;21141;-84
2023/08/05 09:11:29;;;;;;;1.87;0.85;;;17.80;99.90;;;;;;1916964;73;21094;-86
2023/08/05 09:14:21;;;;;;;2.08;1.05;;;17.90;99.90;;;;;;1922854;73;22206;-83
2023/08/05 09:17:14;;;;;;;1.20;0.90;;;17.90;99.90;;;;;;1931377;73;21094;-84
2023/08/05 09:20:16;;;;;;;1.07;0.98;;;18.00;99.90;;;;;;1938715;73;21640;-84
2023/08/05 09:23:12;;;;;;;1.37;1.00;;;17.80;99.90;;;;;;1874656;76;21143;-83
2023/08/05 09:26:03;;;;;;;0.90;0.90;;;17.90;99.90;;;;;;1916156;75;21562;-83
2023/08/05 09:31:35;;;;;;;0.95;0.80;;;18.00;99.90;;;;;;1928842;72;22188;-86
2023/08/05 09:34:34;;;;;;;1.95;0.90;;;18.10;99.90;;;;;;1896846;75;21191;-85
2023/08/05 09:45:38;;;;;;;1.37;0.72;;;18.50;99.90;;;;;;1934957;72;22323;-84
2023/08/05 09:51:09;;;;;;;1.20;1.00;;;18.80;99.90;;;;;;1940294;72;22248;-85
2023/08/05 09:54:04;;;;;;;1.32;0.90;;;18.90;99.90;;;;;;1910296;75;21293;-84
2023/08/05 09:56:57;;;;;;;1.17;0.90;;;19.00;99.90;;;;;;1913240;75;21062;-83
2023/08/05 09:59:50;;;;;;;0.72;0.72;;;18.90;99.90;;;;;;1904220;75;21225;-83
2023/08/05 10:02:39;;;;;;;1.00;0.80;;;18.90;99.90;;;;;;1902554;75;21105;-83
2023/08/05 10:05:32;;;;;;;1.12;0.90;;;19.00;99.90;;;;;;1909167;75;21094;-83
2023/08/05 10:11:02;;;;;;;1.47;0.90;;;19.00;99.90;;;;;;1937327;72;22769;-83
2023/08/05 10:16:37;;;;;;;2.40;1.02;;;19.20;99.90;;;;;;1970745;72;22201;-82
2023/08/05 10:19:32;;;;;;;1.65;0.90;;;19.20;99.90;;;;;;1916316;75;21110;-84
2023/08/05 10:25:06;;;;;;;0.93;0.70;;;19.40;99.90;;;;;;1965186;72;23716;-86
2023/08/05 10:27:59;;;;;;;0.98;0.80;;;19.40;99.90;;;;;;1938622;73;21186;-84
2023/08/05 10:30:51;;;;;;;1.67;0.90;;;19.50;99.90;;;;;;1916067;75;21151;-85
2023/08/05 10:34:12;;;;;;;1.00;0.90;;;19.60;99.90;;;;;;1932361;73;21137;-81
2023/08/05 10:37:04;;;;;;;1.22;0.90;;;19.70;99.90;;;;;;1930318;73;21149;-84
2023/08/05 10:40:04;;;;;;;1.50;0.82;;;19.70;99.90;;;;;;1916170;75;21126;-87
2023/08/05 10:42:56;;;;;;;3.55;0.98;;;19.70;99.90;;;;;;1916122;75;21145;-86
2023/08/05 10:45:49;;;;;;;2.85;0.90;;;19.80;99.90;;;;;;1916208;75;21117;-82
2023/08/05 10:48:42;;;;;;;1.20;0.90;;;19.90;99.90;;;;;;1916151;75;21168;-83
2023/08/05 10:51:35;;;;;;;0.72;0.70;;;20.00;99.90;;;;;;1915924;75;21682;-82
2023/08/05 10:54:26;;;;;;;1.95;0.85;;;20.10;99.90;;;;;;1916061;75;21140;-83
2023/08/05 10:57:47;;;;;;;1.00;0.65;;;20.20;99.90;;;;;;1916138;75;21109;-81
2023/08/05 11:00:42;;;;;;;0.90;0.82;;;20.40;99.90;;;;;;1916218;75;21125;-87
2023/08/05 11:03:36;;;;;;;2.20;1.32;;;20.40;99.90;;;;;;1943617;73;21094;-82
2023/08/05 11:06:27;;;;;;;1.25;0.80;;;20.40;99.90;;;;;;1949914;73;21279;-84
2023/08/05 11:09:19;;;;;;;1.42;0.80;;;20.60;99.90;;;;;;1916389;75;21051;-84
2023/08/05 11:12:11;;;;;;;1.85;0.70;;;20.50;99.90;;;;;;1916352;75;21094;-81
2023/08/05 11:15:03;;;;;;;1.10;0.72;;;20.50;99.90;;;;;;1916432;75;21605;-82
2023/08/05 11:17:55;;;;;;;0.98;0.75;;;20.60;99.90;;;;;;1916161;75;21215;-83
2023/08/05 11:20:48;;;;;;;1.10;0.90;;;20.60;99.90;;;;;;1935050;73;21087;-87
2023/08/05 11:23:41;;;;;;;1.52;0.60;;;20.70;99.90;;;;;;1915787;74;21130;-87
2023/08/05 11:26:32;;;;;;;2.08;1.00;;;20.60;99.90;;;;;;1904034;75;21224;-86
2023/08/05 11:29:23;;;;;;;2.58;0.70;;;20.70;99.90;;;;;;1904030;75;21109;-85
2023/08/05 11:32:15;;;;;;;0.70;0.70;;;20.60;99.90;;;;;;1903912;75;21206;-85
2023/08/05 11:35:08;;;;;;;1.12;0.62;;;20.70;99.90;;;;;;1903579;75;21548;-84
2023/08/05 11:37:59;;;;;;;1.47;0.70;;;20.80;99.90;;;;;;1913103;74;21048;-82
2023/08/05 11:40:53;;;;;;;1.47;0.88;;;21.00;99.90;;;;;;1927035;73;21182;-81
2023/08/05 11:43:45;;;;;;;2.02;0.90;;;21.10;99.90;;;;;;1926804;73;21163;-83
2023/08/05 11:49:17;;;;;;;1.85;0.82;;;21.30;99.90;;;;;;1933935;72;22170;-81
2023/08/05 11:52:12;;;;;;;0.98;0.57;;;21.20;99.90;;;;;;1893126;75;21133;-83
2023/08/05 11:55:09;;;;;;;3.15;0.85;;;21.10;99.90;;;;;;1893129;75;21107;-83
2023/08/05 11:58:03;;;;;;;1.10;0.80;;;21.10;99.90;;;;;;1889380;75;21087;-83
2023/08/05 12:00:57;;;;;;;0.90;0.60;;;21.20;99.90;;;;;;1884815;75;21096;-84
2023/08/05 12:03:49;;;;;;;2.47;0.78;;;21.30;99.90;;;;;;1882479;75;21159;-82
2023/08/05 12:06:40;;;;;;;0.98;0.80;;;21.30;99.90;;;;;;1878715;75;21109;-82
2023/08/05 12:09:31;;;;;;;1.72;0.70;;;21.30;99.90;;;;;;1871603;75;21129;-83
2023/08/05 12:12:23;;;;;;;1.17;0.70;;;21.40;99.90;;;;;;1871579;76;21134;-84
2023/08/05 12:15:16;;;;;;;0.70;0.70;;;21.30;99.90;;;;;;1892814;75;21130;-82
2023/08/05 12:18:08;;;;;;;1.20;1.00;;;21.30;99.90;;;;;;1876431;75;21090;-84
2023/08/05 12:21:00;;;;;;;1.35;0.70;;;21.30;99.90;;;;;;1882248;75;21691;-83
2023/08/05 12:23:51;;;;;;;1.15;0.75;;;21.30;99.90;;;;;;1887938;75;21091;-81
2023/08/05 12:26:43;;;;;;;0.88;0.80;;;21.50;99.90;;;;;;1886671;75;21087;-85
2023/08/05 12:29:34;;;;;;;0.60;0.60;;;21.40;99.90;;;;;;1882443;75;21102;-84
2023/08/05 12:32:25;;;;;;;1.60;0.70;;;21.60;99.90;;;;;;1882047;75;21552;-81
2023/08/05 12:35:18;;;;;;;2.40;0.60;;;21.60;99.90;;;;;;1886455;75;21241;-84
2023/08/05 12:38:09;;;;;;;0.80;0.80;;;21.60;99.90;;;;;;1883060;75;21219;-83
2023/08/05 12:41:01;;;;;;;0.78;0.70;;;21.70;99.90;;;;;;1882232;75;21103;-84
2023/08/05 12:43:52;;;;;;;0.55;0.50;;;21.80;99.90;;;;;;1881079;75;21184;-83
2023/08/05 12:46:44;;;;;;;0.90;0.80;;;21.90;99.90;;;;;;1870085;75;21168;-83
2023/08/05 12:52:16;;;;;;;1.25;0.68;;;22.00;99.90;;;;;;1929336;72;22194;-83
2023/08/05 12:55:09;;;;;;;1.15;0.70;;;22.00;99.90;;;;;;1886144;75;21122;-86
2023/08/05 12:58:01;;;;;;;1.45;0.80;;;22.20;99.90;;;;;;1888441;75;21087;-86
2023/08/05 13:00:52;;;;;;;1.27;0.70;;;22.40;99.90;;;;;;1871939;76;21127;-86
2023/08/05 13:03:44;;;;;;;0.68;0.60;;;22.20;99.90;;;;;;1893013;75;21184;-89
2023/08/05 13:06:35;;;;;;;0.65;0.60;;;22.30;99.90;;;;;;1857562;77;21513;-87
2023/08/05 13:09:29;;;;;;;1.77;0.62;;;22.30;99.90;;;;;;1872206;76;21107;-87
2023/08/05 13:12:20;;;;;;;1.75;0.62;;;22.50;99.90;;;;;;1884903;75;21138;-89
2023/08/05 13:15:12;;;;;;;1.45;0.82;;;22.70;99.90;;;;;;1896983;75;21172;-86
2023/08/05 13:18:04;;;;;;;0.60;0.60;;;22.70;99.90;;;;;;1893764;75;21204;-85
2023/08/05 13:20:55;;;;;;;0.70;0.70;;;22.70;99.90;;;;;;1890511;75;21064;-85
2023/08/05 13:23:46;;;;;;;0.70;0.60;;;22.70;99.90;;;;;;1891231;75;21126;-86
2023/08/05 13:26:38;;;;;;;0.95;0.80;;;22.70;99.90;;;;;;1857267;77;21175;-86
2023/08/05 13:29:29;;;;;;;2.02;0.60;;;22.70;99.90;;;;;;1897324;75;21144;-83
2023/08/05 13:32:21;;;;;;;1.60;0.80;;;22.80;99.90;;;;;;1884079;75;21143;-85
2023/08/05 13:35:13;;;;;;;0.70;0.70;;;22.70;99.90;;;;;;1887527;75;21181;-86
2023/08/05 13:38:04;;;;;;;0.78;0.55;;;22.60;99.90;;;;;;1893789;75;21183;-85
2023/08/05 13:40:57;;;;;;;1.65;0.72;;;22.60;99.90;;;;;;1872198;75;21165;-85
2023/08/05 13:43:49;;;;;;;0.70;0.60;;;22.60;99.90;;;;;;1872034;76;21721;-85
2023/08/05 13:46:40;;;;;;;0.95;0.60;;;22.90;99.90;;;;;;1889354;75;21110;-86
2023/08/05 13:49:33;;;;;;;0.60;0.60;;;23.10;99.90;;;;;;1884094;75;21194;-86
2023/08/05 13:52:24;;;;;;;1.22;0.70;;;23.40;99.90;;;;;;1881481;75;21624;-86
2023/08/05 13:55:16;;;;;;;0.60;0.60;;;23.40;99.90;;;;;;1883837;75;21211;-85
2023/08/05 13:58:07;;;;;;;1.25;0.70;;;23.50;99.90;;;;;;1886593;75;21550;-87
2023/08/05 14:01:00;;;;;;;0.85;0.60;;;23.50;99.90;;;;;;1888621;75;21059;-85
2023/08/05 14:03:52;;;;;;;1.32;0.70;;;23.40;99.90;;;;;;1885833;74;21099;-85
2023/08/05 14:06:46;;;;;;;2.37;0.70;;;23.70;99.90;;;;;;1885729;75;21643;-86
2023/08/05 14:09:38;;;;;;;1.80;0.70;;;23.90;99.90;;;;;;1883286;75;21578;-85
2023/08/05 14:12:29;;;;;;;1.65;0.80;;;24.30;99.90;;;;;;1886609;75;21135;-85
2023/08/05 14:15:21;;;;;;;0.72;0.50;;;24.90;99.90;;;;;;1871253;75;21063;-85
2023/08/05 14:18:12;;;;;;;0.65;0.65;;;24.90;99.90;;;;;;1836101;77;21149;-85
2023/08/05 14:21:06;;;;;;;1.65;0.80;;;25.10;99.90;;;;;;1871674;75;21121;-85
2023/08/05 14:23:57;;;;;;;0.60;0.60;;;25.20;99.90;;;;;;1886562;75;21102;-81
2023/08/05 14:26:49;;;;;;;0.90;0.70;;;25.50;99.90;;;;;;1848034;77;21168;-85
2023/08/05 14:29:40;;;;;;;0.70;0.60;;;25.50;99.90;;;;;;1881671;75;21198;-85
2023/08/05 14:32:32;;;;;;;0.60;0.60;;;25.80;99.90;;;;;;1879673;75;21151;-83
2023/08/05 14:35:23;;;;;;;0.80;0.65;;;26.00;99.90;;;;;;1871861;75;21114;-85
2023/08/05 14:38:15;;;;;;;1.05;0.50;;;26.00;99.90;;;;;;1883636;75;21152;-86
2023/08/05 14:41:08;;;;;;;0.72;0.70;;;25.90;99.90;;;;;;1881368;75;21110;-85
2023/08/05 14:43:59;;;;;;;1.60;0.65;;;25.40;99.90;;;;;;1900819;75;21143;-85
2023/08/05 14:46:51;;;;;;;1.45;0.78;;;25.20;99.90;;;;;;1890782;75;21092;-86
2023/08/05 14:49:42;;;;;;;0.78;0.62;;;25.50;99.90;;;;;;1885748;75;21728;-86
2023/08/05 14:52:33;;;;;;;1.82;0.72;;;26.10;99.90;;;;;;1873273;75;21126;-86
2023/08/05 14:55:25;;;;;;;0.98;0.60;;;26.50;99.90;;;;;;1900214;75;21115;-85
2023/08/05 14:58:17;;;;;;;1.47;0.60;;;26.60;99.90;;;;;;1886330;75;21704;-87
2023/08/05 15:01:18;;;;;;;0.72;0.60;;;27.40;99.90;;;;;;1889585;75;21107;-88
2023/08/05 15:04:09;;;;;;;0.60;0.60;;;27.30;99.40;;;;;;1907033;75;21126;-87
2023/08/05 15:07:01;;;;;;;0.68;0.68;;;26.90;99.50;;;;;;1899887;75;21100;-88
2023/08/05 15:09:53;;;;;;;0.90;0.57;;;27.00;99.40;;;;;;1896471;75;21739;-86
2023/08/05 15:12:44;;;;;;;2.55;0.60;;;27.50;97.90;;;;;;1889749;75;21119;-85
2023/08/05 15:15:36;;;;;;;0.62;0.60;;;27.00;97.40;;;;;;1884239;75;21106;-85
2023/08/05 15:18:28;;;;;;;0.60;0.60;;;27.00;96.70;;;;;;1875228;75;21496;-85
2023/08/05 15:21:19;;;;;;;1.10;0.70;;;27.30;96.60;;;;;;1874316;75;21114;-86
2023/08/05 15:24:10;;;;;;;0.80;0.68;;;27.30;96.50;;;;;;1902510;75;21176;-87
2023/08/05 15:27:03;;;;;;;0.53;0.53;;;27.50;96.00;;;;;;1891677;75;21610;-87
2023/08/05 15:29:58;;;;;;;0.95;0.62;;;27.60;95.20;;;;;;1871367;76;21095;-84
2023/08/05 15:32:49;;;;;;;0.88;0.72;;;27.90;94.70;;;;;;1870981;76;21134;-84
2023/08/05 15:35:41;;;;;;;0.80;0.70;;;28.00;94.00;;;;;;1892900;75;21048;-85
2023/08/05 15:38:32;;;;;;;0.68;0.62;;;28.50;93.70;;;;;;1871239;76;21174;-85
2023/08/05 15:41:23;;;;;;;0.70;0.70;;;28.20;92.60;;;;;;1882537;75;21497;-85
2023/08/05 15:44:15;;;;;;;0.80;0.60;;;28.50;91.80;;;;;;1882110;75;21131;-85
2023/08/05 15:47:07;;;;;;;0.75;0.60;;;28.40;92.20;;;;;;1881261;75;21200;-86
2023/08/05 15:49:58;;;;;;;1.07;0.60;;;27.40;92.70;;;;;;1901624;75;21147;-86
2023/08/05 15:52:51;;;;;;;0.60;0.60;;;26.50;93.90;;;;;;1904611;75;21176;-86
2023/08/05 15:55:42;;;;;;;0.90;0.70;;;26.00;94.70;;;;;;1883483;75;21102;-87
2023/08/05 15:58:33;;;;;;;0.93;0.68;;;25.50;95.40;;;;;;1871872;77;21278;-87
2023/08/05 16:01:26;;;;;;;0.85;0.68;;;25.30;95.80;;;;;;1871725;77;21169;-86
2023/08/05 16:04:17;;;;;;;1.02;0.75;;;24.80;96.60;;;;;;1871766;77;21168;-86
2023/08/05 16:07:09;;;;;;;2.15;1.02;;;24.60;96.80;;;;;;1902577;75;21107;-89
2023/08/05 16:10:00;;;;;;;0.70;0.70;;;24.40;97.50;;;;;;1899663;75;21127;-86
2023/08/05 16:12:52;;;;;;;1.47;0.70;;;24.30;97.60;;;;;;1892152;75;21111;-85
2023/08/05 16:15:43;;;;;;;1.40;0.70;;;24.10;98.20;;;;;;1871706;77;21138;-86
2023/08/05 16:18:35;;;;;;;1.32;0.98;;;24.00;98.10;;;;;;1882721;75;21072;-86
2023/08/05 16:21:27;;;;;;;2.00;0.65;;;24.00;98.90;;;;;;1903753;75;21063;-86
2023/08/05 16:24:18;;;;;;;3.10;0.90;;;24.00;98.70;;;;;;1903790;75;21168;-85
2023/08/05 16:27:09;;;;;;;0.57;0.57;;;23.90;99.20;;;;;;1887109;75;21118;-86
2023/08/05 16:30:01;;;;;;;0.53;0.40;;;24.00;99.50;;;;;;1871761;77;21242;-90
2023/08/05 16:32:52;;;;;;;0.90;0.75;;;24.00;98.70;;;;;;1877757;75;21090;-86
2023/08/05 16:35:43;;;;;;;1.02;0.70;;;24.00;99.00;;;;;;1881617;75;21207;-86
2023/08/05 16:38:35;;;;;;;1.30;0.60;;;24.00;99.00;;;;;;1889345;75;21118;-87
2023/08/05 16:41:26;;;;;;;1.17;0.60;;;24.00;98.80;;;;;;1891399;75;21574;-86
2023/08/05 16:44:19;;;;;;;1.85;0.80;;;23.90;98.70;;;;;;1891386;75;21145;-86